sensor_id;sensor_type;location;lat;lon;timestamp;temperature;humidity
15239;DHT22;7722;53.274;9.500;2022-11-20T00:01:29;0.10;99.90
15239;DHT22;7722;53.274;9.500;2022-11-20T00:03:57;0.00;99.90
15239;DHT22;7722;53.274;9.500;2022-11-20T00:06:26;-0.10;99.90
15239;DHT22;7722;53.274;9.500;2022-11-20T00:08:55;0.00;99.90
15239;DHT22;7722;53.274;9.500;2022-11-20T00:11:24;-0.10;99.90
15239;DHT22;7722;53.274;9.500;2022-11-20T00:13:54;-0.10;99.90
15239;DHT22;7722;53.274;9.500;2022-11-20T00:16:24;-0.10;99.90
15239;DHT22;7722;53.274;9.500;2022-11-20T00:18:52;-0.10;99.90
15239;DHT22;7722;53.274;9.500;2022-11-20T00:21:20;-0.10;99.90
15239;DHT22;7722;53.274;9.500;2022-11-20T00:23:50;-0.10;99.90
15239;DHT22;7722;53.274;9.500;2022-11-20T00:26:19;-0.20;99.90
15239;DHT22;7722;53.274;9.500;2022-11-20T00:28:50;-0.30;99.90
15239;DHT22;7722;53.274;9.500;2022-11-20T00:31:18;-0.30;99.90
15239;DHT22;7722;53.274;9.500;2022-11-20T00:33:45;-0.50;99.90
15239;DHT22;7722;53.274;9.500;2022-11-20T00:36:14;-0.40;99.90
15239;DHT22;7722;53.274;9.500;2022-11-20T00:38:41;-0.50;99.90
15239;DHT22;7722;53.274;9.500;2022-11-20T00:41:11;-0.40;99.90
15239;DHT22;7722;53.274;9.500;2022-11-20T00:43:39;-0.40;99.90
15239;DHT22;7722;53.274;9.500;2022-11-20T00:46:08;-0.40;99.90
15239;DHT22;7722;53.274;9.500;2022-11-20T00:48:36;-0.40;99.90
15239;DHT22;7722;53.274;9.500;2022-11-20T00:51:03;-0.40;99.90
15239;DHT22;7722;53.274;9.500;2022-11-20T00:53:30;-0.40;99.90
15239;DHT22;7722;53.274;9.500;2022-11-20T00:55:59;-0.50;99.90
15239;DHT22;7722;53.274;9.500;2022-11-20T00:58:31;-0.40;99.90
15239;DHT22;7722;53.274;9.500;2022-11-20T01:01:02;-0.50;99.90
15239;DHT22;7722;53.274;9.500;2022-11-20T01:03:31;-0.50;99.90
15239;DHT22;7722;53.274;9.500;2022-11-20T01:06:02;-0.50;99.90
15239;DHT22;7722;53.274;9.500;2022-11-20T01:08:31;-0.60;99.90
15239;DHT22;7722;53.274;9.500;2022-11-20T01:10:59;-0.60;99.90
15239;DHT22;7722;53.274;9.500;2022-11-20T01:13:28;-0.70;99.90
15239;DHT22;7722;53.274;9.500;2022-11-20T01:16:06;-0.60;99.90
15239;DHT22;7722;53.274;9.500;2022-11-20T01:18:33;-0.60;99.90
15239;DHT22;7722;53.274;9.500;2022-11-20T01:21:02;-0.50;99.90
15239;DHT22;7722;53.274;9.500;2022-11-20T01:23:33;-0.50;99.90
15239;DHT22;7722;53.274;9.500;2022-11-20T01:26:01;-0.50;99.90
15239;DHT22;7722;53.274;9.500;2022-11-20T01:28:31;-0.50;99.90
15239;DHT22;7722;53.274;9.500;2022-11-20T01:30:58;-0.50;99.90
15239;DHT22;7722;53.274;9.500;2022-11-20T01:33:25;-0.60;99.90
15239;DHT22;7722;53.274;9.500;2022-11-20T01:35:53;-0.60;99.90
15239;DHT22;7722;53.274;9.500;2022-11-20T01:38:20;-0.60;99.90
15239;DHT22;7722;53.274;9.500;2022-11-20T01:40:54;-0.50;99.90
15239;DHT22;7722;53.274;9.500;2022-11-20T01:43:22;-0.60;99.90
15239;DHT22;7722;53.274;9.500;2022-11-20T01:46:14;-0.60;99.90
15239;DHT22;7722;53.274;9.500;2022-11-20T01:48:46;-0.60;99.90
15239;DHT22;7722;53.274;9.500;2022-11-20T01:51:19;-0.70;99.90
15239;DHT22;7722;53.274;9.500;2022-11-20T01:53:48;-0.60;99.90
15239;DHT22;7722;53.274;9.500;2022-11-20T01:56:15;-0.70;99.90
15239;DHT22;7722;53.274;9.500;2022-11-20T01:58:47;-0.70;99.90
15239;DHT22;7722;53.274;9.500;2022-11-20T02:01:16;-0.80;99.90
15239;DHT22;7722;53.274;9.500;2022-11-20T02:03:44;-0.80;99.90
15239;DHT22;7722;53.274;9.500;2022-11-20T02:06:16;-0.90;99.90
15239;DHT22;7722;53.274;9.500;2022-11-20T02:08:45;-1.00;99.90
15239;DHT22;7722;53.274;9.500;2022-11-20T02:11:12;-0.90;99.90
15239;DHT22;7722;53.274;9.500;2022-11-20T02:13:40;-1.00;99.90
15239;DHT22;7722;53.274;9.500;2022-11-20T02:16:18;-1.00;99.90
15239;DHT22;7722;53.274;9.500;2022-11-20T02:18:47;-1.10;99.90
15239;DHT22;7722;53.274;9.500;2022-11-20T02:21:23;-1.10;99.90
15239;DHT22;7722;53.274;9.500;2022-11-20T02:24:03;-1.00;99.90
15239;DHT22;7722;53.274;9.500;2022-11-20T02:26:33;-1.00;99.90
15239;DHT22;7722;53.274;9.500;2022-11-20T02:29:02;-1.00;99.90
15239;DHT22;7722;53.274;9.500;2022-11-20T02:31:36;-1.00;99.90
15239;DHT22;7722;53.274;9.500;2022-11-20T02:34:04;-1.00;99.90
15239;DHT22;7722;53.274;9.500;2022-11-20T02:36:32;-0.90;99.90
15239;DHT22;7722;53.274;9.500;2022-11-20T02:39:02;-0.90;99.90
15239;DHT22;7722;53.274;9.500;2022-11-20T02:41:34;-0.90;99.90
15239;DHT22;7722;53.274;9.500;2022-11-20T02:44:02;-0.90;99.90
15239;DHT22;7722;53.274;9.500;2022-11-20T02:46:29;-1.00;99.90
15239;DHT22;7722;53.274;9.500;2022-11-20T02:48:56;-0.80;99.90
15239;DHT22;7722;53.274;9.500;2022-11-20T02:51:23;-0.90;99.90
15239;DHT22;7722;53.274;9.500;2022-11-20T02:53:50;-0.80;99.90
15239;DHT22;7722;53.274;9.500;2022-11-20T02:56:19;-0.90;99.90
15239;DHT22;7722;53.274;9.500;2022-11-20T02:58:46;-0.90;99.90
15239;DHT22;7722;53.274;9.500;2022-11-20T03:01:13;-0.80;99.90
15239;DHT22;7722;53.274;9.500;2022-11-20T03:03:41;-0.80;99.90
15239;DHT22;7722;53.274;9.500;2022-11-20T03:06:10;-0.80;99.90
15239;DHT22;7722;53.274;9.500;2022-11-20T03:08:37;-0.70;99.90
15239;DHT22;7722;53.274;9.500;2022-11-20T03:11:05;-0.70;99.90
15239;DHT22;7722;53.274;9.500;2022-11-20T03:13:34;-0.70;99.90
15239;DHT22;7722;53.274;9.500;2022-11-20T03:16:07;-0.60;99.90
15239;DHT22;7722;53.274;9.500;2022-11-20T03:18:34;-0.60;99.90
15239;DHT22;7722;53.274;9.500;2022-11-20T03:21:01;-0.60;99.90
15239;DHT22;7722;53.274;9.500;2022-11-20T03:23:29;-0.60;99.90
15239;DHT22;7722;53.274;9.500;2022-11-20T03:26:07;-0.60;99.90
15239;DHT22;7722;53.274;9.500;2022-11-20T03:28:36;-0.60;99.90
15239;DHT22;7722;53.274;9.500;2022-11-20T03:31:08;-0.50;99.90
15239;DHT22;7722;53.274;9.500;2022-11-20T03:33:35;-0.50;99.90
15239;DHT22;7722;53.274;9.500;2022-11-20T03:36:03;-0.50;99.90
15239;DHT22;7722;53.274;9.500;2022-11-20T03:38:31;-0.60;99.90
15239;DHT22;7722;53.274;9.500;2022-11-20T03:41:00;-0.50;99.90
15239;DHT22;7722;53.274;9.500;2022-11-20T03:43:27;-0.50;99.90
15239;DHT22;7722;53.274;9.500;2022-11-20T03:45:56;-0.40;99.90
15239;DHT22;7722;53.274;9.500;2022-11-20T03:48:23;-0.40;99.90
15239;DHT22;7722;53.274;9.500;2022-11-20T03:50:51;-0.40;99.90
15239;DHT22;7722;53.274;9.500;2022-11-20T03:53:18;-0.30;99.90
15239;DHT22;7722;53.274;9.500;2022-11-20T03:55:45;-0.30;99.90
15239;DHT22;7722;53.274;9.500;2022-11-20T03:58:12;-0.30;99.90
15239;DHT22;7722;53.274;9.500;2022-11-20T04:00:39;-0.30;99.90
15239;DHT22;7722;53.274;9.500;2022-11-20T04:03:08;-0.20;99.90
15239;DHT22;7722;53.274;9.500;2022-11-20T04:05:35;-0.20;99.90
15239;DHT22;7722;53.274;9.500;2022-11-20T04:08:02;-0.20;99.90
15239;DHT22;7722;53.274;9.500;2022-11-20T04:10:29;-0.20;99.90
15239;DHT22;7722;53.274;9.500;2022-11-20T04:12:56;-0.20;99.90
15239;DHT22;7722;53.274;9.500;2022-11-20T04:15:23;-0.20;99.90
15239;DHT22;7722;53.274;9.500;2022-11-20T04:17:50;-0.20;99.90
15239;DHT22;7722;53.274;9.500;2022-11-20T04:20:18;-0.20;99.90
15239;DHT22;7722;53.274;9.500;2022-11-20T04:22:46;-0.20;99.90
15239;DHT22;7722;53.274;9.500;2022-11-20T04:25:13;-0.20;99.90
15239;DHT22;7722;53.274;9.500;2022-11-20T04:27:39;-0.20;99.90
15239;DHT22;7722;53.274;9.500;2022-11-20T04:30:07;-0.20;99.90
15239;DHT22;7722;53.274;9.500;2022-11-20T04:32:35;-0.10;99.90
15239;DHT22;7722;53.274;9.500;2022-11-20T04:35:02;-0.10;99.90
15239;DHT22;7722;53.274;9.500;2022-11-20T04:37:30;-0.10;99.90
15239;DHT22;7722;53.274;9.500;2022-11-20T04:39:57;-0.10;99.90
15239;DHT22;7722;53.274;9.500;2022-11-20T04:42:24;-0.10;99.90
15239;DHT22;7722;53.274;9.500;2022-11-20T04:44:58;-0.10;99.90
15239;DHT22;7722;53.274;9.500;2022-11-20T04:47:25;-0.10;99.90
15239;DHT22;7722;53.274;9.500;2022-11-20T04:49:52;0.00;99.90
15239;DHT22;7722;53.274;9.500;2022-11-20T04:52:19;-0.10;99.90
15239;DHT22;7722;53.274;9.500;2022-11-20T04:54:47;0.00;99.90
15239;DHT22;7722;53.274;9.500;2022-11-20T04:57:14;0.00;99.90
15239;DHT22;7722;53.274;9.500;2022-11-20T04:59:42;0.00;99.90
15239;DHT22;7722;53.274;9.500;2022-11-20T05:02:09;0.00;99.90
15239;DHT22;7722;53.274;9.500;2022-11-20T05:04:36;0.00;99.90
15239;DHT22;7722;53.274;9.500;2022-11-20T05:07:03;0.00;99.90
15239;DHT22;7722;53.274;9.500;2022-11-20T05:09:30;0.00;99.90
15239;DHT22;7722;53.274;9.500;2022-11-20T05:11:59;0.10;99.90
15239;DHT22;7722;53.274;9.500;2022-11-20T05:14:26;0.00;99.90
15239;DHT22;7722;53.274;9.500;2022-11-20T05:16:53;0.00;99.90
15239;DHT22;7722;53.274;9.500;2022-11-20T05:19:20;0.00;99.90
15239;DHT22;7722;53.274;9.500;2022-11-20T05:21:47;0.00;99.90
15239;DHT22;7722;53.274;9.500;2022-11-20T05:24:14;0.00;99.90
15239;DHT22;7722;53.274;9.500;2022-11-20T05:26:41;0.00;99.90
15239;DHT22;7722;53.274;9.500;2022-11-20T05:29:11;0.00;99.90
15239;DHT22;7722;53.274;9.500;2022-11-20T05:31:39;0.00;99.90
15239;DHT22;7722;53.274;9.500;2022-11-20T05:34:06;0.10;99.90
15239;DHT22;7722;53.274;9.500;2022-11-20T05:36:33;0.00;99.90
15239;DHT22;7722;53.274;9.500;2022-11-20T05:39:01;0.00;99.90
15239;DHT22;7722;53.274;9.500;2022-11-20T05:41:28;0.00;99.90
15239;DHT22;7722;53.274;9.500;2022-11-20T05:43:56;0.00;99.90
15239;DHT22;7722;53.274;9.500;2022-11-20T05:46:25;0.10;99.90
15239;DHT22;7722;53.274;9.500;2022-11-20T05:48:52;0.10;99.90
15239;DHT22;7722;53.274;9.500;2022-11-20T05:51:20;0.00;99.90
15239;DHT22;7722;53.274;9.500;2022-11-20T05:53:47;0.10;99.90
15239;DHT22;7722;53.274;9.500;2022-11-20T05:56:15;0.00;99.90
15239;DHT22;7722;53.274;9.500;2022-11-20T05:58:43;0.10;99.90
15239;DHT22;7722;53.274;9.500;2022-11-20T06:01:12;0.10;99.90
15239;DHT22;7722;53.274;9.500;2022-11-20T06:03:41;0.10;99.90
15239;DHT22;7722;53.274;9.500;2022-11-20T06:06:11;0.00;99.90
15239;DHT22;7722;53.274;9.500;2022-11-20T06:08:38;0.00;99.90
15239;DHT22;7722;53.274;9.500;2022-11-20T06:11:06;0.10;99.90
15239;DHT22;7722;53.274;9.500;2022-11-20T06:13:34;0.10;99.90
15239;DHT22;7722;53.274;9.500;2022-11-20T06:16:01;0.10;99.90
15239;DHT22;7722;53.274;9.500;2022-11-20T06:18:29;0.10;99.90
15239;DHT22;7722;53.274;9.500;2022-11-20T06:21:02;0.10;99.90
15239;DHT22;7722;53.274;9.500;2022-11-20T06:23:31;0.10;99.90
15239;DHT22;7722;53.274;9.500;2022-11-20T06:26:01;0.10;99.90
15239;DHT22;7722;53.274;9.500;2022-11-20T06:28:28;0.10;99.90
15239;DHT22;7722;53.274;9.500;2022-11-20T06:30:55;0.10;99.90
15239;DHT22;7722;53.274;9.500;2022-11-20T06:33:22;0.10;99.90
15239;DHT22;7722;53.274;9.500;2022-11-20T06:35:49;0.10;99.90
15239;DHT22;7722;53.274;9.500;2022-11-20T06:38:18;0.10;99.90
15239;DHT22;7722;53.274;9.500;2022-11-20T06:40:45;0.10;99.90
15239;DHT22;7722;53.274;9.500;2022-11-20T06:43:12;0.10;99.90
15239;DHT22;7722;53.274;9.500;2022-11-20T06:45:39;0.20;99.90
15239;DHT22;7722;53.274;9.500;2022-11-20T06:48:06;0.10;99.90
15239;DHT22;7722;53.274;9.500;2022-11-20T06:50:33;0.10;99.90
15239;DHT22;7722;53.274;9.500;2022-11-20T06:53:01;0.20;99.90
15239;DHT22;7722;53.274;9.500;2022-11-20T06:55:30;0.20;99.90
15239;DHT22;7722;53.274;9.500;2022-11-20T06:57:58;0.10;99.90
15239;DHT22;7722;53.274;9.500;2022-11-20T07:00:25;0.20;99.90
15239;DHT22;7722;53.274;9.500;2022-11-20T07:02:51;0.20;99.90
15239;DHT22;7722;53.274;9.500;2022-11-20T07:05:18;0.10;99.90
15239;DHT22;7722;53.274;9.500;2022-11-20T07:07:45;0.10;99.90
15239;DHT22;7722;53.274;9.500;2022-11-20T07:10:12;0.10;99.90
15239;DHT22;7722;53.274;9.500;2022-11-20T07:12:41;0.10;99.90
15239;DHT22;7722;53.274;9.500;2022-11-20T07:15:08;0.10;99.90
15239;DHT22;7722;53.274;9.500;2022-11-20T07:17:35;0.10;99.90
15239;DHT22;7722;53.274;9.500;2022-11-20T07:20:03;0.10;99.90
15239;DHT22;7722;53.274;9.500;2022-11-20T07:22:30;0.10;99.90
15239;DHT22;7722;53.274;9.500;2022-11-20T07:24:57;0.10;99.90
15239;DHT22;7722;53.274;9.500;2022-11-20T07:27:24;0.10;99.90
15239;DHT22;7722;53.274;9.500;2022-11-20T07:29:52;0.10;99.90
15239;DHT22;7722;53.274;9.500;2022-11-20T07:32:19;0.10;99.90
15239;DHT22;7722;53.274;9.500;2022-11-20T07:34:46;0.10;99.90
15239;DHT22;7722;53.274;9.500;2022-11-20T07:37:14;0.10;99.90
15239;DHT22;7722;53.274;9.500;2022-11-20T07:39:41;0.10;99.90
15239;DHT22;7722;53.274;9.500;2022-11-20T07:42:08;0.20;99.90
15239;DHT22;7722;53.274;9.500;2022-11-20T07:44:35;0.20;99.90
15239;DHT22;7722;53.274;9.500;2022-11-20T07:47:04;0.20;99.90
15239;DHT22;7722;53.274;9.500;2022-11-20T07:49:31;0.20;99.90
15239;DHT22;7722;53.274;9.500;2022-11-20T07:51:58;0.30;99.90
15239;DHT22;7722;53.274;9.500;2022-11-20T07:54:25;0.30;99.90
15239;DHT22;7722;53.274;9.500;2022-11-20T07:56:54;0.20;99.90
15239;DHT22;7722;53.274;9.500;2022-11-20T07:59:21;0.30;99.90
15239;DHT22;7722;53.274;9.500;2022-11-20T08:01:48;0.30;99.90
15239;DHT22;7722;53.274;9.500;2022-11-20T08:04:17;0.30;99.90
15239;DHT22;7722;53.274;9.500;2022-11-20T08:06:44;0.40;99.90
15239;DHT22;7722;53.274;9.500;2022-11-20T08:09:11;0.30;99.90
15239;DHT22;7722;53.274;9.500;2022-11-20T08:11:37;0.30;99.90
15239;DHT22;7722;53.274;9.500;2022-11-20T08:14:22;0.40;99.90
15239;DHT22;7722;53.274;9.500;2022-11-20T08:16:49;0.60;99.90
15239;DHT22;7722;53.274;9.500;2022-11-20T08:19:18;0.60;99.90
15239;DHT22;7722;53.274;9.500;2022-11-20T08:21:45;0.60;99.90
15239;DHT22;7722;53.274;9.500;2022-11-20T08:24:12;0.60;99.90
15239;DHT22;7722;53.274;9.500;2022-11-20T08:26:39;0.70;99.90
15239;DHT22;7722;53.274;9.500;2022-11-20T08:29:07;0.70;99.90
15239;DHT22;7722;53.274;9.500;2022-11-20T08:31:34;0.70;99.90
15239;DHT22;7722;53.274;9.500;2022-11-20T08:34:01;0.70;99.90
15239;DHT22;7722;53.274;9.500;2022-11-20T08:36:33;0.80;99.90
15239;DHT22;7722;53.274;9.500;2022-11-20T08:39:00;0.90;99.90
15239;DHT22;7722;53.274;9.500;2022-11-20T08:41:29;0.90;99.90
15239;DHT22;7722;53.274;9.500;2022-11-20T08:43:59;0.90;99.90
15239;DHT22;7722;53.274;9.500;2022-11-20T08:46:30;1.10;99.90
15239;DHT22;7722;53.274;9.500;2022-11-20T08:48:58;1.00;99.90
15239;DHT22;7722;53.274;9.500;2022-11-20T08:51:25;1.00;99.90
15239;DHT22;7722;53.274;9.500;2022-11-20T08:53:53;1.10;99.90
15239;DHT22;7722;53.274;9.500;2022-11-20T08:56:20;1.10;99.90
15239;DHT22;7722;53.274;9.500;2022-11-20T08:58:49;1.10;99.90
15239;DHT22;7722;53.274;9.500;2022-11-20T09:01:16;1.20;99.90
15239;DHT22;7722;53.274;9.500;2022-11-20T09:03:43;1.10;99.90
15239;DHT22;7722;53.274;9.500;2022-11-20T09:06:10;1.10;99.90
15239;DHT22;7722;53.274;9.500;2022-11-20T09:08:37;0.90;99.90
15239;DHT22;7722;53.274;9.500;2022-11-20T09:11:06;1.00;99.90
15239;DHT22;7722;53.274;9.500;2022-11-20T09:13:35;0.90;99.90
15239;DHT22;7722;53.274;9.500;2022-11-20T09:16:04;1.00;99.90
15239;DHT22;7722;53.274;9.500;2022-11-20T09:18:32;1.00;99.90
15239;DHT22;7722;53.274;9.500;2022-11-20T09:21:03;1.00;99.90
15239;DHT22;7722;53.274;9.500;2022-11-20T09:23:32;1.00;99.90
15239;DHT22;7722;53.274;9.500;2022-11-20T09:26:02;1.00;99.90
15239;DHT22;7722;53.274;9.500;2022-11-20T09:28:31;1.00;99.90
15239;DHT22;7722;53.274;9.500;2022-11-20T09:30:59;1.00;99.90
15239;DHT22;7722;53.274;9.500;2022-11-20T09:33:26;1.20;99.90
15239;DHT22;7722;53.274;9.500;2022-11-20T09:35:53;1.20;99.90
15239;DHT22;7722;53.274;9.500;2022-11-20T09:38:20;1.20;99.90
15239;DHT22;7722;53.274;9.500;2022-11-20T09:40:52;1.30;99.90
15239;DHT22;7722;53.274;9.500;2022-11-20T09:43:29;1.20;99.90
15239;DHT22;7722;53.274;9.500;2022-11-20T09:46:07;1.20;99.90
15239;DHT22;7722;53.274;9.500;2022-11-20T09:48:55;1.20;99.90
15239;DHT22;7722;53.274;9.500;2022-11-20T09:51:36;1.10;99.90
15239;DHT22;7722;53.274;9.500;2022-11-20T09:54:13;1.20;99.90
15239;DHT22;7722;53.274;9.500;2022-11-20T09:56:43;1.30;99.90
15239;DHT22;7722;53.274;9.500;2022-11-20T09:59:29;1.30;99.90
15239;DHT22;7722;53.274;9.500;2022-11-20T10:02:01;1.40;99.90
15239;DHT22;7722;53.274;9.500;2022-11-20T10:04:31;1.60;99.90
15239;DHT22;7722;53.274;9.500;2022-11-20T10:07:04;1.60;99.90
15239;DHT22;7722;53.274;9.500;2022-11-20T10:09:35;1.70;99.90
15239;DHT22;7722;53.274;9.500;2022-11-20T10:12:12;1.70;99.90
15239;DHT22;7722;53.274;9.500;2022-11-20T10:14:53;1.70;99.90
15239;DHT22;7722;53.274;9.500;2022-11-20T10:17:33;1.60;99.90
15239;DHT22;7722;53.274;9.500;2022-11-20T10:20:15;1.60;99.90
15239;DHT22;7722;53.274;9.500;2022-11-20T10:22:54;1.60;99.90
15239;DHT22;7722;53.274;9.500;2022-11-20T10:25:32;1.60;99.90
15239;DHT22;7722;53.274;9.500;2022-11-20T10:28:12;1.60;99.90
15239;DHT22;7722;53.274;9.500;2022-11-20T10:30:43;1.60;99.90
15239;DHT22;7722;53.274;9.500;2022-11-20T10:33:17;1.70;99.90
15239;DHT22;7722;53.274;9.500;2022-11-20T10:35:50;1.70;99.90
15239;DHT22;7722;53.274;9.500;2022-11-20T10:38:23;1.90;99.90
15239;DHT22;7722;53.274;9.500;2022-11-20T10:40:53;2.00;99.90
15239;DHT22;7722;53.274;9.500;2022-11-20T10:43:41;1.80;99.90
15239;DHT22;7722;53.274;9.500;2022-11-20T10:46:12;1.90;99.90
15239;DHT22;7722;53.274;9.500;2022-11-20T10:48:44;1.90;99.90
15239;DHT22;7722;53.274;9.500;2022-11-20T10:51:18;2.20;99.90
15239;DHT22;7722;53.274;9.500;2022-11-20T10:53:56;2.40;99.90
15239;DHT22;7722;53.274;9.500;2022-11-20T10:56:31;2.30;99.90
15239;DHT22;7722;53.274;9.500;2022-11-20T10:59:14;2.50;99.90
15239;DHT22;7722;53.274;9.500;2022-11-20T11:01:46;2.60;99.90
15239;DHT22;7722;53.274;9.500;2022-11-20T11:04:28;2.30;99.90
15239;DHT22;7722;53.274;9.500;2022-11-20T11:09:35;2.20;99.90
15239;DHT22;7722;53.274;9.500;2022-11-20T11:12:07;2.30;99.90
15239;DHT22;7722;53.274;9.500;2022-11-20T11:14:42;2.30;99.90
15239;DHT22;7722;53.274;9.500;2022-11-20T11:17:24;2.40;99.90
15239;DHT22;7722;53.274;9.500;2022-11-20T11:20:06;3.00;99.90
15239;DHT22;7722;53.274;9.500;2022-11-20T11:22:34;3.20;99.90
15239;DHT22;7722;53.274;9.500;2022-11-20T11:25:02;3.40;99.90
15239;DHT22;7722;53.274;9.500;2022-11-20T11:27:29;3.90;99.90
15239;DHT22;7722;53.274;9.500;2022-11-20T11:30:17;4.00;99.90
15239;DHT22;7722;53.274;9.500;2022-11-20T11:32:45;4.50;99.90
15239;DHT22;7722;53.274;9.500;2022-11-20T11:35:25;3.90;99.90
15239;DHT22;7722;53.274;9.500;2022-11-20T11:37:54;4.20;99.90
15239;DHT22;7722;53.274;9.500;2022-11-20T11:40:22;4.60;99.90
15239;DHT22;7722;53.274;9.500;2022-11-20T11:42:57;4.10;99.90
15239;DHT22;7722;53.274;9.500;2022-11-20T11:45:26;4.50;99.90
15239;DHT22;7722;53.274;9.500;2022-11-20T11:47:54;4.40;99.90
15239;DHT22;7722;53.274;9.500;2022-11-20T11:50:25;4.50;99.90
15239;DHT22;7722;53.274;9.500;2022-11-20T11:52:59;4.70;99.90
15239;DHT22;7722;53.274;9.500;2022-11-20T11:55:33;4.70;99.90
15239;DHT22;7722;53.274;9.500;2022-11-20T11:58:11;4.60;99.90
15239;DHT22;7722;53.274;9.500;2022-11-20T12:00:49;4.70;99.90
15239;DHT22;7722;53.274;9.500;2022-11-20T12:03:21;4.90;99.90
15239;DHT22;7722;53.274;9.500;2022-11-20T12:05:57;4.80;99.90
15239;DHT22;7722;53.274;9.500;2022-11-20T12:08:28;4.70;99.90
15239;DHT22;7722;53.274;9.500;2022-11-20T12:11:02;4.80;99.90
15239;DHT22;7722;53.274;9.500;2022-11-20T12:13:40;4.80;99.90
15239;DHT22;7722;53.274;9.500;2022-11-20T12:16:14;5.10;99.90
15239;DHT22;7722;53.274;9.500;2022-11-20T12:18:43;4.90;99.90
15239;DHT22;7722;53.274;9.500;2022-11-20T12:21:20;5.00;99.90
15239;DHT22;7722;53.274;9.500;2022-11-20T12:24:06;5.40;99.90
15239;DHT22;7722;53.274;9.500;2022-11-20T12:26:46;5.80;99.90
15239;DHT22;7722;53.274;9.500;2022-11-20T12:29:27;5.90;99.90
15239;DHT22;7722;53.274;9.500;2022-11-20T12:32:20;6.50;99.90
15239;DHT22;7722;53.274;9.500;2022-11-20T12:34:58;6.10;99.90
15239;DHT22;7722;53.274;9.500;2022-11-20T12:37:37;6.50;99.90
15239;DHT22;7722;53.274;9.500;2022-11-20T12:40:19;6.40;99.90
15239;DHT22;7722;53.274;9.500;2022-11-20T12:42:58;6.50;99.90
15239;DHT22;7722;53.274;9.500;2022-11-20T12:46:13;7.20;99.90
15239;DHT22;7722;53.274;9.500;2022-11-20T12:48:56;6.50;99.90
15239;DHT22;7722;53.274;9.500;2022-11-20T12:54:50;6.10;99.90
15239;DHT22;7722;53.274;9.500;2022-11-20T12:57:27;6.70;99.90
15239;DHT22;7722;53.274;9.500;2022-11-20T13:00:12;6.90;99.90
15239;DHT22;7722;53.274;9.500;2022-11-20T13:03:13;7.30;99.90
15239;DHT22;7722;53.274;9.500;2022-11-20T13:05:53;7.00;99.90
15239;DHT22;7722;53.274;9.500;2022-11-20T13:08:24;6.80;99.90
15239;DHT22;7722;53.274;9.500;2022-11-20T13:11:00;6.50;99.90
15239;DHT22;7722;53.274;9.500;2022-11-20T13:13:33;5.70;99.90
15239;DHT22;7722;53.274;9.500;2022-11-20T13:16:08;5.40;99.90
15239;DHT22;7722;53.274;9.500;2022-11-20T13:18:39;5.30;99.90
15239;DHT22;7722;53.274;9.500;2022-11-20T13:21:19;5.20;99.90
15239;DHT22;7722;53.274;9.500;2022-11-20T13:23:47;5.00;99.90
15239;DHT22;7722;53.274;9.500;2022-11-20T13:26:18;4.80;99.90
15239;DHT22;7722;53.274;9.500;2022-11-20T13:28:46;4.70;99.90
15239;DHT22;7722;53.274;9.500;2022-11-20T13:31:29;4.70;99.90
15239;DHT22;7722;53.274;9.500;2022-11-20T13:33:58;4.50;99.90
15239;DHT22;7722;53.274;9.500;2022-11-20T13:36:27;4.50;99.90
15239;DHT22;7722;53.274;9.500;2022-11-20T13:38:55;4.40;99.90
15239;DHT22;7722;53.274;9.500;2022-11-20T13:41:29;4.30;99.90
15239;DHT22;7722;53.274;9.500;2022-11-20T13:44:05;4.30;99.90
15239;DHT22;7722;53.274;9.500;2022-11-20T13:46:38;4.40;99.90
15239;DHT22;7722;53.274;9.500;2022-11-20T13:49:10;4.30;99.90
15239;DHT22;7722;53.274;9.500;2022-11-20T13:51:42;4.20;99.90
15239;DHT22;7722;53.274;9.500;2022-11-20T13:58:01;3.90;99.90
15239;DHT22;7722;53.274;9.500;2022-11-20T14:00:30;3.80;99.90
15239;DHT22;7722;53.274;9.500;2022-11-20T14:03:07;3.90;99.90
15239;DHT22;7722;53.274;9.500;2022-11-20T14:05:37;3.90;99.90
15239;DHT22;7722;53.274;9.500;2022-11-20T14:08:06;3.70;99.90
15239;DHT22;7722;53.274;9.500;2022-11-20T14:10:37;3.70;99.90
15239;DHT22;7722;53.274;9.500;2022-11-20T14:13:16;3.60;99.90
15239;DHT22;7722;53.274;9.500;2022-11-20T14:15:44;3.50;99.90
15239;DHT22;7722;53.274;9.500;2022-11-20T14:18:13;3.50;99.90
15239;DHT22;7722;53.274;9.500;2022-11-20T14:20:42;3.40;99.90
15239;DHT22;7722;53.274;9.500;2022-11-20T14:23:10;3.20;99.90
15239;DHT22;7722;53.274;9.500;2022-11-20T14:25:37;3.20;99.90
15239;DHT22;7722;53.274;9.500;2022-11-20T14:28:20;3.20;99.90
15239;DHT22;7722;53.274;9.500;2022-11-20T14:30:48;3.30;99.90
15239;DHT22;7722;53.274;9.500;2022-11-20T14:33:16;3.30;99.90
15239;DHT22;7722;53.274;9.500;2022-11-20T14:35:45;3.40;99.90
15239;DHT22;7722;53.274;9.500;2022-11-20T14:38:14;3.40;99.90
15239;DHT22;7722;53.274;9.500;2022-11-20T14:40:41;3.40;99.90
15239;DHT22;7722;53.274;9.500;2022-11-20T14:43:19;3.40;99.90
15239;DHT22;7722;53.274;9.500;2022-11-20T14:45:52;3.10;99.90
15239;DHT22;7722;53.274;9.500;2022-11-20T14:48:24;3.10;99.90
15239;DHT22;7722;53.274;9.500;2022-11-20T14:50:53;2.90;99.90
15239;DHT22;7722;53.274;9.500;2022-11-20T14:53:22;2.80;99.90
15239;DHT22;7722;53.274;9.500;2022-11-20T14:55:56;2.70;99.90
15239;DHT22;7722;53.274;9.500;2022-11-20T14:58:27;2.70;99.90
15239;DHT22;7722;53.274;9.500;2022-11-20T15:00:55;2.60;99.90
15239;DHT22;7722;53.274;9.500;2022-11-20T15:03:23;2.70;99.90
15239;DHT22;7722;53.274;9.500;2022-11-20T15:05:50;2.50;99.90
15239;DHT22;7722;53.274;9.500;2022-11-20T15:08:18;2.30;99.90
15239;DHT22;7722;53.274;9.500;2022-11-20T15:10:47;2.10;99.90
15239;DHT22;7722;53.274;9.500;2022-11-20T15:13:18;2.00;99.90
15239;DHT22;7722;53.274;9.500;2022-11-20T15:15:50;2.00;99.90
15239;DHT22;7722;53.274;9.500;2022-11-20T15:18:19;1.80;99.90
15239;DHT22;7722;53.274;9.500;2022-11-20T15:20:47;1.80;99.90
15239;DHT22;7722;53.274;9.500;2022-11-20T15:23:18;1.80;99.90
15239;DHT22;7722;53.274;9.500;2022-11-20T15:25:45;1.70;99.90
15239;DHT22;7722;53.274;9.500;2022-11-20T15:28:17;1.70;99.90
15239;DHT22;7722;53.274;9.500;2022-11-20T15:30:45;1.60;99.90
15239;DHT22;7722;53.274;9.500;2022-11-20T15:33:14;1.50;99.90
15239;DHT22;7722;53.274;9.500;2022-11-20T15:35:41;1.40;99.90
15239;DHT22;7722;53.274;9.500;2022-11-20T15:38:08;1.40;99.90
15239;DHT22;7722;53.274;9.500;2022-11-20T15:40:36;1.20;99.90
15239;DHT22;7722;53.274;9.500;2022-11-20T15:43:03;1.10;99.90
15239;DHT22;7722;53.274;9.500;2022-11-20T15:45:35;1.10;99.90
15239;DHT22;7722;53.274;9.500;2022-11-20T15:48:04;1.00;99.90
15239;DHT22;7722;53.274;9.500;2022-11-20T15:50:37;0.80;99.90
15239;DHT22;7722;53.274;9.500;2022-11-20T15:53:05;0.70;99.90
15239;DHT22;7722;53.274;9.500;2022-11-20T15:55:32;0.60;99.90
15239;DHT22;7722;53.274;9.500;2022-11-20T15:57:59;0.60;99.90
15239;DHT22;7722;53.274;9.500;2022-11-20T16:00:26;0.70;99.90
15239;DHT22;7722;53.274;9.500;2022-11-20T16:02:53;0.60;99.90
15239;DHT22;7722;53.274;9.500;2022-11-20T16:05:20;0.70;99.90
15239;DHT22;7722;53.274;9.500;2022-11-20T16:07:50;0.70;99.90
15239;DHT22;7722;53.274;9.500;2022-11-20T16:10:17;0.70;99.90
15239;DHT22;7722;53.274;9.500;2022-11-20T16:12:44;0.70;99.90
15239;DHT22;7722;53.274;9.500;2022-11-20T16:15:29;0.70;99.90
15239;DHT22;7722;53.274;9.500;2022-11-20T16:18:16;0.70;99.90
15239;DHT22;7722;53.274;9.500;2022-11-20T16:20:44;0.70;99.90
15239;DHT22;7722;53.274;9.500;2022-11-20T16:23:13;0.70;99.90
15239;DHT22;7722;53.274;9.500;2022-11-20T16:25:41;0.60;99.90
15239;DHT22;7722;53.274;9.500;2022-11-20T16:28:09;0.50;99.90